Union Trader — SVAX6 — position and weather

sailwx.info

Track history (hours):
 
Tides and Currents Weather Stations Pressure Air Temp Water Temp Dewpoint Dewpoint Depression Visibility Wind Speed Wind Dir Waves Ship Positions

Union Trader

Last reported at 2016-May-30 17:14 UTC. Time now 2016-May-31 10:03 UTC.
Position S 22°54' W 041°32'.

Length 190 m; draft 11.6 m.

Type: Cargo ship. MMSI: 240982000.

Date/timePositionNaut miles runAvg speedWind from/ knotsBaromVisibWave heightAir tempDewpointWater temp
2016-May-30 17:14S 22°54' W 041°32'811.4
2016-May-30 16:33S 22°59' W 041°38'1211.9
2016-May-30 15:33S 23°07' W 041°48'1212.2
2016-May-30 14:33S 23°14' W 041°59'1312.3
2016-May-30 13:32S 23°18' W 042°12'1212.6
2016-May-30 12:33S 23°22' W 042°24'2612.4
2016-May-30 10:29S 23°30' W 042°51'14211.5
2016-May-29 22:13S 24°14' W 045°18'5311.3
2016-May-29 17:33S 24°09' W 046°16'8 8.1
2016-May-29 16:33S 24°03' W 046°21'6 5.8
2016-May-29 15:31S 23°58' W 046°18'1 0.1
2016-May-29 01:03S 23°57' W 046°19'0 0.0
2016-May-29 00:27S 23°57' W 046°19'0 0.0
2016-May-28 20:27S 23°57' W 046°19'0 0.0
2016-May-28 19:27S 23°57' W 046°19'0 0.0
2016-May-28 14:30S 23°57' W 046°19'0 0.0
2016-May-28 13:33S 23°57' W 046°19'0 0.0
2016-May-28 12:27S 23°57' W 046°19'0 0.0
2016-May-28 11:33S 23°57' W 046°19'0 0.0
2016-May-28 10:24S 23°57' W 046°19'0 0.0
2016-May-28 09:30S 23°57' W 046°19'0 0.0
2016-May-28 08:30S 23°57' W 046°19'0 0.0
2016-May-28 07:33S 23°57' W 046°19'0 0.0
2016-May-28 06:30S 23°57' W 046°19'0 0.0
2016-May-28 05:30S 23°57' W 046°19'0 0.0
2016-May-28 04:21S 23°57' W 046°19'0 0.0
2016-May-28 03:27S 23°57' W 046°19'0 0.0
2016-May-28 02:30S 23°57' W 046°19'0 0.0
2016-May-28 01:32S 23°57' W 046°19'5 5.2
2016-May-28 00:33S 24°01' W 046°21'5 4.7
2016-May-27 23:33S 24°06' W 046°21'1 1.2
2016-May-27 22:33S 24°06' W 046°20'0 0.0
2016-May-27 21:24S 24°06' W 046°20'0 0.0
2016-May-27 20:33S 24°06' W 046°20'0 0.0
2016-May-27 19:33S 24°06' W 046°20'0 0.0
2016-May-27 18:21S 24°06' W 046°20'0 0.0
2016-May-27 17:30S 24°06' W 046°20'0 0.0
2016-May-27 16:15S 24°06' W 046°20'0 0.0
2016-May-27 15:30S 24°06' W 046°20'0 0.0
2016-May-27 14:18S 24°06' W 046°20'0 0.0
2016-May-27 13:30S 24°06' W 046°20'0 0.0
2016-May-27 12:33S 24°06' W 046°20'0 0.0
2016-May-27 11:12S 24°06' W 046°20'0 0.0
2016-May-27 10:33S 24°06' W 046°20'0 0.0
2016-May-27 09:24S 24°06' W 046°20'0 0.0
2016-May-27 08:30S 24°06' W 046°20'0 0.0
2016-May-27 07:12S 24°06' W 046°20'0 0.0
2016-May-27 06:30S 24°06' W 046°20'0 0.0
2016-May-27 05:30S 24°06' W 046°20'0 0.0
2016-May-27 04:33S 24°06' W 046°20'0 0.0
2016-May-27 03:18S 24°06' W 046°20'0 0.0
2016-May-27 02:30S 24°06' W 046°20'0 0.1
2016-May-27 01:33S 24°06' W 046°20'0 0.0
2016-May-27 00:33S 24°06' W 046°20'0 0.0
2016-May-26 23:24S 24°06' W 046°20'0 0.0
2016-May-26 22:33S 24°06' W 046°20'0 0.0
2016-May-26 21:30S 24°06' W 046°20'0 0.0
2016-May-26 20:33S 24°06' W 046°20'0 0.0
2016-May-26 19:24S 24°06' W 046°20'0 0.0
2016-May-26 18:30S 24°06' W 046°20'0 0.0
2016-May-26 17:30S 24°06' W 046°20'0 0.0
2016-May-26 16:27S 24°06' W 046°20'0 0.0
2016-May-26 14:33S 24°06' W 046°20'0 0.0
2016-May-26 13:33S 24°06' W 046°20'0 0.0
2016-May-26 12:33S 24°06' W 046°20'0 0.0
2016-May-26 11:30S 24°06' W 046°20'0 0.0
2016-May-26 10:27S 24°06' W 046°20'0 0.0
2016-May-26 09:33S 24°06' W 046°20'0 0.0
2016-May-26 08:24S 24°06' W 046°20'0 0.1
2016-May-26 07:33S 24°06' W 046°20'0 0.1
2016-May-26 06:33S 24°06' W 046°20'0 0.1
2016-May-26 05:30S 24°06' W 046°20'0 0.0
2016-May-26 04:30S 24°06' W 046°20'0 0.0
2016-May-26 03:33S 24°06' W 046°20'0 0.0
2016-May-26 02:24S 24°06' W 046°20'0 0.0
2016-May-26 01:30S 24°06' W 046°20'0 0.0
2016-May-26 00:24S 24°06' W 046°20'0 0.0
2016-May-25 23:30S 24°06' W 046°20'0 0.0
2016-May-25 22:30S 24°06' W 046°20'0 0.0
2016-May-25 20:18S 24°06' W 046°20'0 0.0
2016-May-25 19:30S 24°06' W 046°20'0 0.0
2016-May-25 18:30S 24°06' W 046°20'0 0.0
2016-May-25 17:33S 24°06' W 046°20'0 0.0
2016-May-25 16:33S 24°06' W 046°20'0 0.0
2016-May-25 15:30S 24°06' W 046°20'0 0.0
2016-May-25 14:24S 24°06' W 046°20'0 0.0
2016-May-25 13:33S 24°06' W 046°20'0 0.0
2016-May-25 12:30S 24°06' W 046°20'0 0.0
2016-May-25 11:30S 24°06' W 046°20'0 0.0
2016-May-25 10:33S 24°06' W 046°20'0 0.0
2016-May-25 08:30S 24°06' W 046°20'0 0.0
2016-May-25 07:18S 24°06' W 046°20'0 0.1
2016-May-25 06:27S 24°06' W 046°20'0 0.0
2016-May-25 05:27S 24°06' W 046°20'0 0.0
2016-May-25 03:30S 24°06' W 046°20'0 0.0
2016-May-25 02:15S 24°06' W 046°20'0 0.0
2016-May-25 01:30S 24°06' W 046°20'0 0.1
2016-May-25 00:33S 24°06' W 046°20'0 0.1
2016-May-24 23:33S 24°06' W 046°20'0 0.0
2016-May-24 22:33S 24°06' W 046°20'0 0.0
2016-May-24 21:30S 24°06' W 046°20'0 0.0
2016-May-24 20:33S 24°06' W 046°20'0 0.0
2016-May-24 19:30S 24°06' W 046°20'0 0.0
2016-May-24 18:33S 24°06' W 046°20'0 0.0
2016-May-24 17:30S 24°06' W 046°20'0 0.0
2016-May-24 16:33S 24°06' W 046°20'0 0.0
2016-May-24 15:33S 24°06' W 046°20'0 0.0
2016-May-24 14:33S 24°06' W 046°20'0 0.0
2016-May-24 13:30S 24°06' W 046°20'0 0.0
2016-May-24 12:21S 24°06' W 046°20'0 0.0
2016-May-24 11:15S 24°06' W 046°20'0 0.0
2016-May-24 10:33S 24°06' W 046°20'0 0.0
2016-May-24 09:30S 24°06' W 046°20'0 0.0
2016-May-24 08:24S 24°06' W 046°20'0 0.0
2016-May-24 07:33S 24°06' W 046°20'0 0.0
2016-May-24 06:33S 24°06' W 046°20'0 0.0
2016-May-24 05:27S 24°06' W 046°20'0 0.0
2016-May-24 04:30S 24°06' W 046°20'0 0.0
2016-May-24 02:21S 24°06' W 046°20'0 0.0
2016-May-24 01:33S 24°06' W 046°20'0 0.0
2016-May-24 00:24S 24°06' W 046°20'0 0.0
2016-May-23 23:30S 24°06' W 046°20'0 0.0
2016-May-23 22:27S 24°06' W 046°20'0 0.0
2016-May-23 21:30S 24°06' W 046°20'0 0.0
2016-May-23 20:27S 24°06' W 046°20'0 0.0
2016-May-23 19:30S 24°06' W 046°20'0 0.0
2016-May-23 18:27S 24°06' W 046°20'0 0.0
2016-May-23 17:27S 24°06' W 046°20'0 0.0
2016-May-23 16:15S 24°06' W 046°20'0 0.0
2016-May-23 15:18S 24°06' W 046°20'0 0.0
2016-May-23 14:12S 24°06' W 046°20'0 0.0
2016-May-23 13:33S 24°06' W 046°20'0 0.0
2016-May-23 12:30S 24°06' W 046°20'0 0.0
2016-May-23 11:33S 24°06' W 046°20'0 0.0
2016-May-23 10:21S 24°06' W 046°20'0 0.1
2016-May-23 09:27S 24°06' W 046°20'0 0.0
2016-May-23 08:24S 24°06' W 046°20'0 0.0
2016-May-23 07:27S 24°06' W 046°20'0 0.1
2016-May-23 06:27S 24°06' W 046°20'0 0.0
2016-May-23 05:33S 24°06' W 046°20'0 0.0
2016-May-23 04:30S 24°06' W 046°20'0 0.0
2016-May-23 03:30S 24°06' W 046°20'0 0.1
2016-May-23 02:27S 24°06' W 046°20'0 0.1
2016-May-23 01:30S 24°06' W 046°20'0 0.0
2016-May-23 00:30S 24°06' W 046°20'0 0.0
2016-May-22 23:33S 24°06' W 046°20'0 0.0
2016-May-22 22:30S 24°06' W 046°20'0 0.0
2016-May-22 21:30S 24°06' W 046°20'0 0.0
2016-May-22 20:30S 24°06' W 046°20'0 0.0
2016-May-22 19:30S 24°06' W 046°20'0 0.0
2016-May-22 18:15S 24°06' W 046°20'0 0.1
2016-May-22 17:30S 24°06' W 046°20'0 0.0
2016-May-22 16:24S 24°06' W 046°20'0 0.0
2016-May-22 15:33S 24°06' W 046°20'0 0.0
2016-May-22 14:33S 24°06' W 046°20'0 0.0
2016-May-22 13:24S 24°06' W 046°20'0 0.1
2016-May-22 12:21S 24°06' W 046°20'0 0.0
2016-May-22 11:24S 24°06' W 046°20'0 0.1
2016-May-22 10:33S 24°06' W 046°20'0 0.0
2016-May-22 09:30S 24°06' W 046°20'0 0.0
2016-May-22 08:24S 24°06' W 046°20'0 0.1
2016-May-22 07:30S 24°06' W 046°20'0 0.1
2016-May-22 06:33S 24°06' W 046°20'0 0.1
2016-May-22 05:27S 24°06' W 046°20'0 0.0
2016-May-22 04:33S 24°06' W 046°20'0 0.1
2016-May-22 03:30S 24°06' W 046°20'0 0.0
2016-May-22 02:33S 24°06' W 046°20'0 0.0
2016-May-22 01:30S 24°06' W 046°20'0 0.0
2016-May-22 00:18S 24°06' W 046°20'0 0.2
2016-May-21 23:18S 24°06' W 046°20'0 0.0
2016-May-21 22:03S 24°06' W 046°20'0 0.0
2016-May-21 21:30S 24°06' W 046°20'0 0.0
2016-May-21 20:30S 24°06' W 046°20'0 0.0
2016-May-21 19:33S 24°06' W 046°20'0 0.0
2016-May-21 18:30S 24°06' W 046°20'0 0.0
2016-May-21 17:33S 24°06' W 046°20'0 0.0
2016-May-21 16:27S 24°06' W 046°20'0 0.0
2016-May-21 15:03S 24°06' W 046°20'0 0.1
2016-May-21 14:30S 24°06' W 046°20'0 0.1
2016-May-21 13:33S 24°06' W 046°20'0 0.1
2016-May-21 11:24S 24°06' W 046°20'0 0.1
2016-May-21 10:18S 24°06' W 046°20'0 0.1
2016-May-21 09:33S 24°06' W 046°20'0 0.0
2016-May-21 08:21S 24°06' W 046°20'0 0.1
2016-May-21 07:33S 24°06' W 046°20'0 0.0
2016-May-21 06:33S 24°06' W 046°20'0 0.0
2016-May-21 05:12S 24°06' W 046°20'0 0.1
2016-May-21 04:33S 24°06' W 046°20'0 0.1
2016-May-21 03:33S 24°06' W 046°20'0 0.0
2016-May-21 02:30S 24°06' W 046°20'0 0.1
2016-May-21 01:30S 24°06' W 046°20'0 0.0
2016-May-21 00:27S 24°06' W 046°20'0 0.0
2016-May-20 22:33S 24°06' W 046°20'0 0.0
2016-May-20 21:30S 24°06' W 046°20'0 0.0
2016-May-20 20:27S 24°06' W 046°20'0 0.0
2016-May-20 19:21S 24°06' W 046°20'0 0.0
2016-May-20 18:27S 24°06' W 046°20'0 0.0
2016-May-20 17:33S 24°06' W 046°20'  
Track history (hours):
 
Tides and Currents Weather Stations Pressure Air Temp Water Temp Dewpoint Dewpoint Depression Visibility Wind Speed Wind Dir Waves Ship Positions

Union Trader

Last reported at 2016-May-30 17:14 UTC. Time now 2016-May-31 10:03 UTC.
Position S 22°54' W 041°32'.

Length 190 m; draft 11.6 m.

Type: Cargo ship. MMSI: 240982000.

Date/timePositionNaut miles runAvg speedWind from/ knotsBaromVisibWave heightAir tempDewpointWater temp
2016-May-30 17:14S 22°54' W 041°32'811.4
2016-May-30 16:33S 22°59' W 041°38'1211.9
2016-May-30 15:33S 23°07' W 041°48'1212.2
2016-May-30 14:33S 23°14' W 041°59'1312.3
2016-May-30 13:32S 23°18' W 042°12'1212.6
2016-May-30 12:33S 23°22' W 042°24'2612.4
2016-May-30 10:29S 23°30' W 042°51'14211.5
2016-May-29 22:13S 24°14' W 045°18'5311.3
2016-May-29 17:33S 24°09' W 046°16'8 8.1
2016-May-29 16:33S 24°03' W 046°21'6 5.8
2016-May-29 15:31S 23°58' W 046°18'1 0.1
2016-May-29 01:03S 23°57' W 046°19'0 0.0
2016-May-29 00:27S 23°57' W 046°19'0 0.0
2016-May-28 20:27S 23°57' W 046°19'0 0.0
2016-May-28 19:27S 23°57' W 046°19'0 0.0
2016-May-28 14:30S 23°57' W 046°19'0 0.0
2016-May-28 13:33S 23°57' W 046°19'0 0.0
2016-May-28 12:27S 23°57' W 046°19'0 0.0
2016-May-28 11:33S 23°57' W 046°19'0 0.0
2016-May-28 10:24S 23°57' W 046°19'0 0.0
2016-May-28 09:30S 23°57' W 046°19'0 0.0
2016-May-28 08:30S 23°57' W 046°19'0 0.0
2016-May-28 07:33S 23°57' W 046°19'0 0.0
2016-May-28 06:30S 23°57' W 046°19'0 0.0
2016-May-28 05:30S 23°57' W 046°19'0 0.0
2016-May-28 04:21S 23°57' W 046°19'0 0.0
2016-May-28 03:27S 23°57' W 046°19'0 0.0
2016-May-28 02:30S 23°57' W 046°19'0 0.0
2016-May-28 01:32S 23°57' W 046°19'5 5.2
2016-May-28 00:33S 24°01' W 046°21'5 4.7
2016-May-27 23:33S 24°06' W 046°21'1 1.2
2016-May-27 22:33S 24°06' W 046°20'0 0.0
2016-May-27 21:24S 24°06' W 046°20'0 0.0
2016-May-27 20:33S 24°06' W 046°20'0 0.0
2016-May-27 19:33S 24°06' W 046°20'0 0.0
2016-May-27 18:21S 24°06' W 046°20'0 0.0
2016-May-27 17:30S 24°06' W 046°20'0 0.0
2016-May-27 16:15S 24°06' W 046°20'0 0.0
2016-May-27 15:30S 24°06' W 046°20'0 0.0
2016-May-27 14:18S 24°06' W 046°20'0 0.0
2016-May-27 13:30S 24°06' W 046°20'0 0.0
2016-May-27 12:33S 24°06' W 046°20'0 0.0
2016-May-27 11:12S 24°06' W 046°20'0 0.0
2016-May-27 10:33S 24°06' W 046°20'0 0.0
2016-May-27 09:24S 24°06' W 046°20'0 0.0
2016-May-27 08:30S 24°06' W 046°20'0 0.0
2016-May-27 07:12S 24°06' W 046°20'0 0.0
2016-May-27 06:30S 24°06' W 046°20'0 0.0
2016-May-27 05:30S 24°06' W 046°20'0 0.0
2016-May-27 04:33S 24°06' W 046°20'0 0.0
2016-May-27 03:18S 24°06' W 046°20'0 0.0
2016-May-27 02:30S 24°06' W 046°20'0 0.1
2016-May-27 01:33S 24°06' W 046°20'0 0.0
2016-May-27 00:33S 24°06' W 046°20'0 0.0
2016-May-26 23:24S 24°06' W 046°20'0 0.0
2016-May-26 22:33S 24°06' W 046°20'0 0.0
2016-May-26 21:30S 24°06' W 046°20'0 0.0
2016-May-26 20:33S 24°06' W 046°20'0 0.0
2016-May-26 19:24S 24°06' W 046°20'0 0.0
2016-May-26 18:30S 24°06' W 046°20'0 0.0
2016-May-26 17:30S 24°06' W 046°20'0 0.0
2016-May-26 16:27S 24°06' W 046°20'0 0.0
2016-May-26 14:33S 24°06' W 046°20'0 0.0
2016-May-26 13:33S 24°06' W 046°20'0 0.0
2016-May-26 12:33S 24°06' W 046°20'0 0.0
2016-May-26 11:30S 24°06' W 046°20'0 0.0
2016-May-26 10:27S 24°06' W 046°20'0 0.0
2016-May-26 09:33S 24°06' W 046°20'0 0.0
2016-May-26 08:24S 24°06' W 046°20'0 0.1
2016-May-26 07:33S 24°06' W 046°20'0 0.1
2016-May-26 06:33S 24°06' W 046°20'0 0.1
2016-May-26 05:30S 24°06' W 046°20'0 0.0
2016-May-26 04:30S 24°06' W 046°20'0 0.0
2016-May-26 03:33S 24°06' W 046°20'0 0.0
2016-May-26 02:24S 24°06' W 046°20'0 0.0
2016-May-26 01:30S 24°06' W 046°20'0 0.0
2016-May-26 00:24S 24°06' W 046°20'0 0.0
2016-May-25 23:30S 24°06' W 046°20'0 0.0
2016-May-25 22:30S 24°06' W 046°20'0 0.0
2016-May-25 20:18S 24°06' W 046°20'0 0.0
2016-May-25 19:30S 24°06' W 046°20'0 0.0
2016-May-25 18:30S 24°06' W 046°20'0 0.0
2016-May-25 17:33S 24°06' W 046°20'0 0.0
2016-May-25 16:33S 24°06' W 046°20'0 0.0
2016-May-25 15:30S 24°06' W 046°20'0 0.0
2016-May-25 14:24S 24°06' W 046°20'0 0.0
2016-May-25 13:33S 24°06' W 046°20'0 0.0
2016-May-25 12:30S 24°06' W 046°20'0 0.0
2016-May-25 11:30S 24°06' W 046°20'0 0.0
2016-May-25 10:33S 24°06' W 046°20'0 0.0
2016-May-25 08:30S 24°06' W 046°20'0 0.0
2016-May-25 07:18S 24°06' W 046°20'0 0.1
2016-May-25 06:27S 24°06' W 046°20'0 0.0
2016-May-25 05:27S 24°06' W 046°20'0 0.0
2016-May-25 03:30S 24°06' W 046°20'0 0.0
2016-May-25 02:15S 24°06' W 046°20'0 0.0
2016-May-25 01:30S 24°06' W 046°20'0 0.1
2016-May-25 00:33S 24°06' W 046°20'0 0.1
2016-May-24 23:33S 24°06' W 046°20'0 0.0
2016-May-24 22:33S 24°06' W 046°20'0 0.0
2016-May-24 21:30S 24°06' W 046°20'0 0.0
2016-May-24 20:33S 24°06' W 046°20'0 0.0
2016-May-24 19:30S 24°06' W 046°20'0 0.0
2016-May-24 18:33S 24°06' W 046°20'0 0.0
2016-May-24 17:30S 24°06' W 046°20'0 0.0
2016-May-24 16:33S 24°06' W 046°20'0 0.0
2016-May-24 15:33S 24°06' W 046°20'0 0.0
2016-May-24 14:33S 24°06' W 046°20'0 0.0
2016-May-24 13:30S 24°06' W 046°20'0 0.0
2016-May-24 12:21S 24°06' W 046°20'0 0.0
2016-May-24 11:15S 24°06' W 046°20'0 0.0
2016-May-24 10:33S 24°06' W 046°20'0 0.0
2016-May-24 09:30S 24°06' W 046°20'0 0.0
2016-May-24 08:24S 24°06' W 046°20'0 0.0
2016-May-24 07:33S 24°06' W 046°20'0 0.0
2016-May-24 06:33S 24°06' W 046°20'0 0.0
2016-May-24 05:27S 24°06' W 046°20'0 0.0
2016-May-24 04:30S 24°06' W 046°20'0 0.0
2016-May-24 02:21S 24°06' W 046°20'0 0.0
2016-May-24 01:33S 24°06' W 046°20'0 0.0
2016-May-24 00:24S 24°06' W 046°20'0 0.0
2016-May-23 23:30S 24°06' W 046°20'0 0.0
2016-May-23 22:27S 24°06' W 046°20'0 0.0
2016-May-23 21:30S 24°06' W 046°20'0 0.0
2016-May-23 20:27S 24°06' W 046°20'0 0.0
2016-May-23 19:30S 24°06' W 046°20'0 0.0
2016-May-23 18:27S 24°06' W 046°20'0 0.0
2016-May-23 17:27S 24°06' W 046°20'0 0.0
2016-May-23 16:15S 24°06' W 046°20'0 0.0
2016-May-23 15:18S 24°06' W 046°20'0 0.0
2016-May-23 14:12S 24°06' W 046°20'0 0.0
2016-May-23 13:33S 24°06' W 046°20'0 0.0
2016-May-23 12:30S 24°06' W 046°20'0 0.0
2016-May-23 11:33S 24°06' W 046°20'0 0.0
2016-May-23 10:21S 24°06' W 046°20'0 0.1
2016-May-23 09:27S 24°06' W 046°20'0 0.0
2016-May-23 08:24S 24°06' W 046°20'0 0.0
2016-May-23 07:27S 24°06' W 046°20'0 0.1
2016-May-23 06:27S 24°06' W 046°20'0 0.0
2016-May-23 05:33S 24°06' W 046°20'0 0.0
2016-May-23 04:30S 24°06' W 046°20'0 0.0
2016-May-23 03:30S 24°06' W 046°20'0 0.1
2016-May-23 02:27S 24°06' W 046°20'0 0.1
2016-May-23 01:30S 24°06' W 046°20'0 0.0
2016-May-23 00:30S 24°06' W 046°20'0 0.0
2016-May-22 23:33S 24°06' W 046°20'0 0.0
2016-May-22 22:30S 24°06' W 046°20'0 0.0
2016-May-22 21:30S 24°06' W 046°20'0 0.0
2016-May-22 20:30S 24°06' W 046°20'0 0.0
2016-May-22 19:30S 24°06' W 046°20'0 0.0
2016-May-22 18:15S 24°06' W 046°20'0 0.1
2016-May-22 17:30S 24°06' W 046°20'0 0.0
2016-May-22 16:24S 24°06' W 046°20'0 0.0
2016-May-22 15:33S 24°06' W 046°20'0 0.0
2016-May-22 14:33S 24°06' W 046°20'0 0.0
2016-May-22 13:24S 24°06' W 046°20'0 0.1
2016-May-22 12:21S 24°06' W 046°20'0 0.0
2016-May-22 11:24S 24°06' W 046°20'0 0.1
2016-May-22 10:33S 24°06' W 046°20'0 0.0
2016-May-22 09:30S 24°06' W 046°20'0 0.0
2016-May-22 08:24S 24°06' W 046°20'0 0.1
2016-May-22 07:30S 24°06' W 046°20'0 0.1
2016-May-22 06:33S 24°06' W 046°20'0 0.1
2016-May-22 05:27S 24°06' W 046°20'0 0.0
2016-May-22 04:33S 24°06' W 046°20'0 0.1
2016-May-22 03:30S 24°06' W 046°20'0 0.0
2016-May-22 02:33S 24°06' W 046°20'0 0.0
2016-May-22 01:30S 24°06' W 046°20'0 0.0
2016-May-22 00:18S 24°06' W 046°20'0 0.2
2016-May-21 23:18S 24°06' W 046°20'0 0.0
2016-May-21 22:03S 24°06' W 046°20'0 0.0
2016-May-21 21:30S 24°06' W 046°20'0 0.0
2016-May-21 20:30S 24°06' W 046°20'0 0.0
2016-May-21 19:33S 24°06' W 046°20'0 0.0
2016-May-21 18:30S 24°06' W 046°20'0 0.0
2016-May-21 17:33S 24°06' W 046°20'0 0.0
2016-May-21 16:27S 24°06' W 046°20'0 0.0
2016-May-21 15:03S 24°06' W 046°20'0 0.1
2016-May-21 14:30S 24°06' W 046°20'0 0.1
2016-May-21 13:33S 24°06' W 046°20'0 0.1
2016-May-21 11:24S 24°06' W 046°20'0 0.1
2016-May-21 10:18S 24°06' W 046°20'0 0.1
2016-May-21 09:33S 24°06' W 046°20'0 0.0
2016-May-21 08:21S 24°06' W 046°20'0 0.1
2016-May-21 07:33S 24°06' W 046°20'0 0.0
2016-May-21 06:33S 24°06' W 046°20'0 0.0
2016-May-21 05:12S 24°06' W 046°20'0 0.1
2016-May-21 04:33S 24°06' W 046°20'0 0.1
2016-May-21 03:33S 24°06' W 046°20'0 0.0
2016-May-21 02:30S 24°06' W 046°20'0 0.1
2016-May-21 01:30S 24°06' W 046°20'0 0.0
2016-May-21 00:27S 24°06' W 046°20'0 0.0
2016-May-20 22:33S 24°06' W 046°20'0 0.0
2016-May-20 21:30S 24°06' W 046°20'0 0.0
2016-May-20 20:27S 24°06' W 046°20'0 0.0
2016-May-20 19:21S 24°06' W 046°20'0 0.0
2016-May-20 18:27S 24°06' W 046°20'0 0.0
2016-May-20 17:33S 24°06' W 046°20'  

Dump ship's entire track history